• Join FlightAware (Why Join?)
  • Login
  • US Flag 
07:26AM EST


 

Airport Tracker/Info


-or-


 

Live Flight TrackerFlight Track Log ✈ ASQ6070 ✈ 03-Jun-2012 ✈ KTUS - KDEN

Flight Track Log - Related Links

Times and Time Zones

All times are in EDT time to prevent confusion due to time zone crossing. See the ASQ6070 flight status page for this flight to view local times or setup timezone preferences in your user account.

Time Position Orientation Groundspeed Altitude Reporting Facility
EDT Latitude Longitude Course Direction KTS MPH feet Rate Location/Type
03:46PM 32.0994 -110.9228 127° Southeast 184 212 3,000  Level Albuquerque Center
03:47PM 32.0656 -110.8700 116° Southeast 220 253 4,600 1,740 Climbing Albuquerque Center
03:48PM 32.0364 -110.8003 103° East 256 295 6,400 1,920 Climbing Albuquerque Center
03:49PM 32.0200 -110.7139 85° East 270 311 8,500 1,860 Climbing Albuquerque Center
03:49PM 32.0267 -110.6308 30° Northeast 303 349 10,100 1,680 Climbing Albuquerque Center
03:51PM 32.1200 -110.5683 24° Northeast 329 379 12,000 1,380 Climbing Albuquerque Center
03:52PM 32.2108 -110.5200 27° Northeast 334 384 13,100 960 Climbing Albuquerque Center
03:53PM 32.3064 -110.4622 28° Northeast 359 413 14,000 900 Climbing Albuquerque Center
03:54PM 32.4058 -110.3994 26° Northeast 380 437 15,000 840 Climbing Albuquerque Center
03:55PM 32.4928 -110.3483 29° Northeast 387 445 15,800 900 Climbing Albuquerque Center
03:56PM 32.6050 -110.2758 27° Northeast 401 461 16,900 1,020 Climbing Albuquerque Center
03:57PM 32.7089 -110.2128 26° Northeast 401 461 17,900 960 Climbing Albuquerque Center
03:58PM 32.8125 -110.1519 28° Northeast 406 467 18,900 960 Climbing Albuquerque Center
03:59PM 32.9139 -110.0886 28° Northeast 411 473 19,900 960 Climbing Albuquerque Center
04:00PM 33.0114 -110.0272 27° Northeast 417 480 20,900 960 Climbing Albuquerque Center
04:01PM 33.1169 -109.9639 27° Northeast 417 480 21,900 960 Climbing Albuquerque Center
04:02PM 33.2206 -109.9000 27° Northeast 417 480 22,900 900 Climbing Albuquerque Center
04:03PM 33.3283 -109.8336 28° Northeast 412 474 23,800 900 Climbing Albuquerque Center
04:04PM 33.4342 -109.7669 27° Northeast 417 480 24,800 960 Climbing Albuquerque Center
04:05PM 33.5417 -109.7003 27° Northeast 417 480 25,800 960 Climbing Albuquerque Center
04:06PM 33.6494 -109.6336 27° Northeast 417 480 26,800 960 Climbing Albuquerque Center
04:07PM 33.7592 -109.5667 27° Northeast 417 480 27,800 900 Climbing Albuquerque Center
04:08PM 33.8669 -109.4994 28° Northeast 422 486 28,700 840 Climbing Albuquerque Center
04:09PM 33.9722 -109.4319 28° Northeast 422 486 29,500 780 Climbing Albuquerque Center
04:10PM 34.0819 -109.3619 28° Northeast 428 493 30,300 720 Climbing Albuquerque Center
04:11PM 34.1917 -109.2919 27° Northeast 433 498 31,000 720 Climbing Albuquerque Center
04:12PM 34.3033 -109.2242 25° Northeast 433 498 31,800 780 Climbing Albuquerque Center
04:14PM 34.5306 -109.0981 21° North 443 510 33,400 780 Climbing Albuquerque Center
04:15PM 34.6461 -109.0450 19° North 443 510 34,200 780 Climbing Albuquerque Center
04:16PM 34.7678 -108.9944 21° North 444 511 35,000 780 Climbing Albuquerque Center
04:17PM 34.8939 -108.9364 20° North 455 524 35,800 780 Climbing Albuquerque Center
04:18PM 35.0092 -108.8853 21° North 445 512 36,600 600 Climbing Albuquerque Center
04:19PM 35.1100 -108.8389 20° North 428 493 37,000 180 Climbing Albuquerque Center
04:20PM 35.2381 -108.7828 19° North 433 498 37,000  Level Albuquerque Center
04:21PM 35.3575 -108.7314 21° North 438 504 37,000  Level Albuquerque Center
04:22PM 35.4728 -108.6772 19° North 438 504 37,000  Level Albuquerque Center
04:23PM 35.5819 -108.6306 20° North 445 512 37,000  Level Albuquerque Center
04:25PM 35.8422 -108.5131 20° North 450 518 37,000  Level Denver Center
04:26PM 35.9711 -108.4542 20° North 447 514 37,000  Level Denver Center
04:27PM 36.0808 -108.4044 20° North 444 511 37,000  Level Denver Center
04:28PM 36.2089 -108.3467 33° Northeast 442 509 37,000  Level Denver Center
04:29PM 36.3050 -108.2694 37° Northeast 434 499 37,000  Level Denver Center
04:30PM 36.4128 -108.1669 37° Northeast 436 502 37,000  Level Denver Center
04:31PM 36.5050 -108.0789 38° Northeast 436 502 37,000  Level Denver Center
04:32PM 36.6119 -107.9761 38° Northeast 435 501 37,000  Level Denver Center
04:33PM 36.7031 -107.8875 38° Northeast 435 501 37,000  Level Denver Center
04:34PM 36.8086 -107.7853 38° Northeast 431 496 37,000  Level Denver Center
04:35PM 36.8986 -107.6975 51° Northeast 428 493 37,000  Level Denver Center
04:36PM 36.9828 -107.5678 51° Northeast 427 491 37,000  Level Denver Center
04:37PM 37.0550 -107.4561 51° Northeast 431 496 37,000  Level Denver Center
04:38PM 37.1381 -107.3253 51° Northeast 430 495 37,000  Level Denver Center
04:39PM 37.2106 -107.2144 35° Northeast 430 495 37,000  Level Denver Center
04:40PM 37.3186 -107.1175 36° Northeast 427 491 37,000  Level Denver Center
04:41PM 37.4100 -107.0331 36° Northeast 426 490 37,000  Level Denver Center
04:43PM 37.5169 -106.9361 36° Northeast 423 487 37,000  Level Denver Center
04:44PM 37.6089 -106.8519 36° Northeast 426 490 37,000  Level Denver Center
04:45PM 37.7156 -106.7544 36° Northeast 424 488 37,000  Level Denver Center
04:46PM 37.8206 -106.6589 36° Northeast 425 489 37,000  Level Denver Center
04:47PM 37.9117 -106.5742 36° Northeast 425 489 37,000 -180 Level Denver Center
04:48PM 38.0131 -106.4806 36° Northeast 423 487 36,700 -720 Descending Denver Center
04:49PM 38.1081 -106.3928 36° Northeast 421 484 35,500 -1,380 Descending Denver Center
04:50PM 38.2153 -106.2939 36° Northeast 424 488 33,900 -1,440 Descending Denver Center
04:51PM 38.3075 -106.2081 36° Northeast 428 493 32,500 -1,500 Descending Denver Center
04:52PM 38.4128 -106.1089 36° Northeast 434 499 30,900 -1,440 Descending Denver Center
04:53PM 38.5072 -106.0197 36° Northeast 437 503 29,600 -1,440 Descending Denver Center
04:54PM 38.6200 -105.9139 36° Northeast 446 513 28,000 -1,560 Descending Denver Center
04:55PM 38.7303 -105.8094 37° Northeast 450 518 26,400 -1,440 Descending Denver Center
04:56PM 38.8308 -105.7136 36° Northeast 455 524 25,000 -1,500 Descending Denver Center
04:57PM 38.9256 -105.6236 37° Northeast 446 513 23,300 -1,740 Descending Denver Center
04:58PM 39.0333 -105.5192 36° Northeast 437 503 21,400 -1,740 Descending Denver Center
04:59PM 39.1261 -105.4308 37° Northeast 431 496 19,700 -1,980 Descending Denver Center
05:00PM 39.2300 -105.3303 24° Northeast 404 465 17,300 -1,620 Descending Denver Center
05:01PM 39.3156 -105.2800 21° North 343 395 16,400 -1,200 Descending Denver Center
05:02PM 39.4097 -105.2322 22° Northeast 340 391 14,800 -1,440 Descending Denver Center
05:03PM 39.4950 -105.1881 22° Northeast 333 383 13,400 -840 Descending Denver Center
05:04PM 39.5817 -105.1417 21° North 314 361 13,100 -180 Descending Denver Center
05:05PM 39.6597 -105.1033 19° North 303 349 13,100 -60 Level Denver Center
05:06PM 39.7436 -105.0647 22° Northeast 297 342 13,000 -720 Descending Denver Center
05:08PM 39.8092 -105.0306 59° Northeast 259 298 11,600 -1,440 Descending Denver Center
05:09PM 39.8458 -104.9517 94° East 247 284 10,000 -1,680 Descending Denver Center
05:10PM 39.8411 -104.8694 90° East 222 255 8,200 -1,620 Descending Denver Center
05:11PM 39.8411 -104.7997 91° East 183 211 6,700 -1,320 Descending Denver Center
05:12PM 39.8403 -104.7314 91° East 178 205 5,500 -660 Descending Denver Center
05:13PM 39.8394 -104.6694 201° Southwest 175 201 5,400 -120 Descending Denver Center
05:20PM 39.5890 -104.7925 22° Northeast  Level FlightAware Approximate
05:21PM 39.6992 -104.7359 22° Northeast  Level FlightAware Approximate
05:22PM 39.8094 -104.6790 22° Northeast  Level FlightAware Approximate